createdAt,value
2019-04-11T00:02:16.345Z,9.06
2019-04-11T00:04:46.321Z,9.12
2019-04-11T00:07:16.235Z,9.02
2019-04-11T00:09:45.625Z,9.02
2019-04-11T00:12:15.164Z,9.02
2019-04-11T00:14:46.631Z,9.07
2019-04-11T00:17:15.662Z,9.05
2019-04-11T00:19:45.419Z,9.04
2019-04-11T00:22:15.211Z,8.96
2019-04-11T00:24:45.210Z,8.97
2019-04-11T00:27:14.950Z,8.86
2019-04-11T00:29:44.869Z,8.88
2019-04-11T00:32:14.331Z,8.79
2019-04-11T00:34:44.861Z,8.77
2019-04-11T00:37:14.388Z,8.75
2019-04-11T00:39:43.792Z,8.77
2019-04-11T00:42:13.205Z,8.78
2019-04-11T00:44:43.164Z,8.73
2019-04-11T00:47:13.066Z,8.70
2019-04-11T00:49:42.932Z,8.61
2019-04-11T00:52:12.613Z,8.53
2019-04-11T00:54:42.753Z,8.59
2019-04-11T00:57:12.765Z,8.61
2019-04-11T00:59:42.604Z,8.61
2019-04-11T01:02:12.148Z,8.62
2019-04-11T01:04:41.475Z,8.65
2019-04-11T01:07:11.118Z,8.61
2019-04-11T01:09:40.415Z,8.50
2019-04-11T01:12:10.215Z,8.51
2019-04-11T01:14:40.658Z,8.46
2019-04-11T01:17:10.189Z,8.50
2019-04-11T01:19:40.666Z,8.47
2019-04-11T01:22:10.282Z,8.46
2019-04-11T01:24:39.899Z,8.56
2019-04-11T01:27:09.824Z,8.61
2019-04-11T01:29:39.806Z,8.65
2019-04-11T01:32:10.658Z,8.70
2019-04-11T01:34:40.467Z,8.62
2019-04-11T01:37:09.995Z,8.65
2019-04-11T01:39:59.937Z,8.64
2019-04-11T01:42:29.939Z,8.64
2019-04-11T01:44:59.454Z,8.69
2019-04-11T01:47:51.056Z,8.70
2019-04-11T01:50:27.161Z,8.76
2019-04-11T01:52:56.502Z,8.63
2019-04-11T01:55:26.215Z,8.53
2019-04-11T01:57:55.719Z,8.56
2019-04-11T02:00:50.898Z,8.43
2019-04-11T02:03:25.709Z,8.41
2019-04-11T02:05:55.159Z,8.44
2019-04-11T02:08:25.024Z,8.44
2019-04-11T02:10:54.642Z,8.52
2019-04-11T02:13:24.122Z,8.57
2019-04-11T02:15:56.759Z,8.65
2019-04-11T02:18:25.581Z,8.72
2019-04-11T02:20:55.746Z,8.80
2019-04-11T02:23:35.476Z,8.87
2019-04-11T02:26:11.531Z,8.92
2019-04-11T02:28:41.200Z,8.97
2019-04-11T02:31:12.276Z,9.02
2019-04-11T02:33:43.187Z,9.04
2019-04-11T02:36:13.722Z,9.13
2019-04-11T02:38:44.080Z,9.18
2019-04-11T02:41:14.225Z,9.23
2019-04-11T02:43:44.488Z,9.35
2019-04-11T02:46:22.963Z,9.34
2019-04-11T02:48:45.499Z,8.87
2019-04-11T02:51:15.171Z,8.70
2019-04-11T02:53:45.130Z,8.88
2019-04-11T02:56:15.037Z,8.92
2019-04-11T02:58:46.322Z,8.80
2019-04-11T03:01:15.742Z,8.75
2019-04-11T03:03:45.636Z,8.97
2019-04-11T03:06:15.370Z,8.78
2019-04-11T03:08:46.397Z,8.78
2019-04-11T03:11:16.701Z,8.90
2019-04-11T03:13:48.535Z,9.10
2019-04-11T03:16:32.805Z,8.88
2019-04-11T03:19:06.964Z,8.82
2019-04-11T03:21:23.543Z,8.76
2019-04-11T03:23:51.963Z,8.86
2019-04-11T03:26:21.636Z,8.76
2019-04-11T03:28:54.496Z,8.77
2019-04-11T03:34:39.798Z,8.76
2019-04-11T03:39:14.955Z,8.88
2019-04-11T03:41:42.798Z,8.88
2019-04-11T03:44:06.613Z,9.03
2019-04-11T03:46:48.031Z,9.24
2019-04-11T03:49:16.499Z,9.32
2019-04-11T03:51:34.086Z,9.32
2019-04-11T03:54:05.047Z,9.19
2019-04-11T03:56:35.068Z,9.19
2019-04-11T03:59:06.225Z,9.09
2019-04-11T04:01:36.058Z,9.08
2019-04-11T04:04:06.628Z,8.99
2019-04-11T04:06:37.392Z,8.99
2019-04-11T04:09:08.982Z,8.99
2019-04-11T04:11:40.835Z,9.05
2019-04-11T04:14:21.335Z,9.06
2019-04-11T04:17:27.927Z,9.13
2019-04-11T04:20:22.246Z,9.43
2019-04-11T04:23:00.548Z,9.43
2019-04-11T04:25:30.451Z,9.51
2019-04-11T04:27:59.824Z,9.51
2019-04-11T04:30:29.895Z,9.72
2019-04-11T04:33:00.599Z,9.76
2019-04-11T04:35:31.688Z,9.82
2019-04-11T04:38:03.083Z,9.82
2019-04-11T04:40:49.961Z,9.85
2019-04-11T04:43:07.369Z,9.72
2019-04-11T04:45:54.136Z,9.77
2019-04-11T04:48:11.188Z,9.89
2019-04-11T04:50:39.199Z,9.74
2019-04-11T04:53:09.262Z,9.74
2019-04-11T04:55:38.954Z,9.87
2019-04-11T04:58:09.163Z,9.70
2019-04-11T05:00:39.644Z,9.70
2019-04-11T05:03:09.861Z,9.65
2019-04-11T05:05:39.907Z,9.51
2019-04-11T05:08:10.753Z,9.60
2019-04-11T05:10:40.809Z,9.60
2019-04-11T05:13:11.918Z,9.78
2019-04-11T05:15:42.162Z,9.78
2019-04-11T05:18:15.180Z,10.07
2019-04-11T05:20:44.233Z,10.07
2019-04-11T05:23:13.964Z,10.13
2019-04-11T05:25:44.562Z,10.29
2019-04-11T05:28:14.213Z,10.40
2019-04-11T05:30:44.871Z,10.51
2019-04-11T05:33:14.599Z,10.45
2019-04-11T05:35:44.073Z,10.45
2019-04-11T05:38:13.626Z,10.58
2019-04-11T05:40:43.190Z,10.66
2019-04-11T05:43:13.563Z,10.76
2019-04-11T05:45:42.841Z,10.81
2019-04-11T05:48:23.982Z,10.89
2019-04-11T05:50:53.826Z,10.97
2019-04-11T05:53:23.490Z,11.00
2019-04-11T05:55:53.181Z,11.08
2019-04-11T05:58:22.589Z,11.02
2019-04-11T06:00:58.322Z,11.05
2019-04-11T06:03:28.325Z,11.03
2019-04-11T06:06:04.785Z,10.98
2019-04-11T06:08:35.604Z,11.01
2019-04-11T06:11:24.164Z,11.03
2019-04-11T06:14:15.215Z,10.97
2019-04-11T06:16:52.614Z,10.92
2019-04-11T06:19:47.924Z,10.97
2019-04-11T06:22:19.721Z,10.86
2019-04-11T06:24:58.669Z,10.65
2019-04-11T06:27:49.996Z,10.48
2019-04-11T06:30:37.309Z,10.38
2019-04-11T06:33:22.609Z,10.32
2019-04-11T06:36:23.307Z,10.41
2019-04-11T06:39:11.362Z,10.51
2019-04-11T06:41:48.626Z,10.71
2019-04-11T06:44:34.273Z,10.71
2019-04-11T06:47:34.906Z,10.77
2019-04-11T06:50:22.963Z,10.81
2019-04-11T06:52:53.260Z,10.99
2019-04-11T06:55:44.754Z,11.16
2019-04-11T06:58:19.290Z,11.38
2019-04-11T07:00:53.667Z,11.68
2019-04-11T07:03:29.240Z,11.84
2019-04-11T07:05:59.391Z,12.01
2019-04-11T07:08:34.182Z,12.16
2019-04-11T07:11:07.282Z,12.35
2019-04-11T07:13:49.802Z,12.46
2019-04-11T07:16:19.978Z,12.71
2019-04-11T07:19:21.717Z,12.93
2019-04-11T07:21:52.618Z,12.99
2019-04-11T07:24:25.430Z,13.06
2019-04-11T07:27:09.537Z,13.24
2019-04-11T07:29:58.522Z,13.07
2019-04-11T07:32:29.876Z,13.16
2019-04-11T07:35:17.405Z,13.12
2019-04-11T07:37:49.378Z,13.35
2019-04-11T07:40:39.408Z,13.38
2019-04-11T07:43:15.754Z,13.38
2019-04-11T07:46:19.901Z,13.35
2019-04-11T07:48:50.490Z,13.36
2019-04-11T07:51:37.080Z,13.27
2019-04-11T07:54:25.941Z,13.20
2019-04-11T07:57:04.178Z,13.34
2019-04-11T07:59:42.591Z,13.07
2019-04-11T08:02:29.460Z,13.09
2019-04-11T08:05:32.839Z,13.02
2019-04-11T08:08:26.979Z,13.07
2019-04-11T08:11:15.748Z,13.00
2019-04-11T08:14:00.028Z,12.95
2019-04-11T08:16:47.238Z,12.88
2019-04-11T08:19:51.253Z,12.80
2019-04-11T08:22:39.202Z,12.88
2019-04-11T08:25:33.943Z,12.97
2019-04-11T08:28:07.566Z,12.85
2019-04-11T08:30:54.948Z,12.76
2019-04-11T08:33:25.018Z,12.83
2019-04-11T08:36:19.820Z,12.75
2019-04-11T08:38:49.322Z,12.68
2019-04-11T08:41:47.557Z,12.86
2019-04-11T08:44:23.888Z,13.12
2019-04-11T08:47:06.400Z,13.18
2019-04-11T08:49:41.852Z,13.50
2019-04-11T08:52:22.527Z,13.59
2019-04-11T08:55:02.181Z,13.70
2019-04-11T08:57:41.572Z,13.90
2019-04-11T09:00:36.309Z,14.22
2019-04-11T09:03:15.917Z,14.41
2019-04-11T09:06:02.611Z,14.44
2019-04-11T09:08:59.000Z,14.49
2019-04-11T09:11:32.963Z,14.65
2019-04-11T09:14:20.302Z,14.78
2019-04-11T09:16:59.021Z,14.88
2019-04-11T09:19:51.513Z,14.93
2019-04-11T09:22:49.075Z,15.13
2019-04-11T09:25:36.951Z,15.22
2019-04-11T09:28:17.505Z,15.33
2019-04-11T09:31:15.383Z,15.44
2019-04-11T09:34:03.801Z,15.67
2019-04-11T09:36:52.067Z,15.73
2019-04-11T09:39:41.447Z,15.79
2019-04-11T09:42:28.387Z,15.91
2019-04-11T09:45:23.479Z,15.88
2019-04-11T09:48:17.823Z,16.07
2019-04-11T09:51:03.516Z,16.32
2019-04-11T09:53:34.437Z,16.50
2019-04-11T09:56:41.042Z,16.38
2019-04-11T09:59:14.572Z,16.54
2019-04-11T10:02:18.822Z,16.52
2019-04-11T10:04:48.499Z,16.75
2019-04-11T10:07:42.563Z,16.92
2019-04-11T10:10:40.369Z,17.00
2019-04-11T10:13:26.862Z,16.94
2019-04-11T10:16:18.274Z,17.09
2019-04-11T10:19:07.608Z,17.20
2019-04-11T10:21:37.826Z,17.51
2019-04-11T10:24:26.439Z,17.40
2019-04-11T10:27:12.178Z,17.44
2019-04-11T10:29:59.585Z,18.00
2019-04-11T10:32:32.973Z,17.87
2019-04-11T10:35:22.026Z,17.89
2019-04-11T10:37:51.909Z,17.67
2019-04-11T10:40:41.972Z,17.91
2019-04-11T10:43:11.900Z,17.67
2019-04-11T10:45:58.781Z,17.54
2019-04-11T10:48:37.758Z,17.56
2019-04-11T10:51:18.984Z,17.60
2019-04-11T10:53:49.712Z,17.69
2019-04-11T10:56:49.500Z,17.69
2019-04-11T10:59:19.545Z,17.41
2019-04-11T11:02:21.020Z,17.34
2019-04-11T11:04:53.198Z,17.34
2019-04-11T11:07:26.664Z,17.46
2019-04-11T11:10:05.118Z,17.23
2019-04-11T11:12:47.711Z,17.00
2019-04-11T11:15:23.302Z,16.61
2019-04-11T11:18:41.210Z,16.38
2019-04-11T11:21:09.248Z,16.12
2019-04-11T11:23:57.067Z,16.29
2019-04-11T11:26:29.456Z,16.44
2019-04-11T11:29:27.068Z,16.44
2019-04-11T11:32:03.063Z,16.18
2019-04-11T11:34:39.515Z,16.08
2019-04-11T11:37:31.263Z,16.00
2019-04-11T11:40:39.203Z,15.97
2019-04-11T11:43:34.959Z,16.17
2019-04-11T11:46:12.214Z,16.13
2019-04-11T11:48:54.333Z,16.18
2019-04-11T11:51:43.622Z,16.38
2019-04-11T11:54:19.790Z,16.56
2019-04-11T11:56:50.608Z,16.79
2019-04-11T11:59:35.121Z,16.88
2019-04-11T12:02:08.489Z,17.03
2019-04-11T12:05:14.657Z,17.44
2019-04-11T12:07:51.513Z,17.82
2019-04-11T12:10:29.236Z,17.88
2019-04-11T12:13:17.480Z,17.95
2019-04-11T12:16:05.683Z,17.96
2019-04-11T12:18:54.945Z,18.08
2019-04-11T12:21:29.393Z,17.87
2019-04-11T12:24:17.530Z,17.61
2019-04-11T12:26:57.633Z,17.70
2019-04-11T12:29:48.948Z,17.81
2019-04-11T12:32:20.418Z,17.91
2019-04-11T12:35:08.796Z,18.08
2019-04-11T12:37:51.846Z,18.12
2019-04-11T12:40:50.538Z,17.87
2019-04-11T12:43:19.947Z,17.63
2019-04-11T12:46:07.316Z,17.53
2019-04-11T12:48:43.105Z,17.38
2019-04-11T12:51:37.651Z,17.52
2019-04-11T12:54:15.626Z,17.28
2019-04-11T12:57:04.807Z,17.05
2019-04-11T12:59:34.174Z,16.86
2019-04-11T13:02:31.408Z,16.85
2019-04-11T13:05:00.783Z,16.56
2019-04-11T13:07:52.176Z,16.58
2019-04-11T13:10:32.482Z,16.51
2019-04-11T13:13:20.637Z,16.54
2019-04-11T13:16:12.199Z,16.63
2019-04-11T13:18:57.579Z,16.56
2019-04-11T13:21:35.615Z,16.56
2019-04-11T13:24:27.123Z,16.56
2019-04-11T13:27:16.625Z,16.58
2019-04-11T13:30:05.025Z,16.70
2019-04-11T13:32:52.555Z,16.70
2019-04-11T13:35:36.133Z,16.64
2019-04-11T13:38:08.322Z,16.52
2019-04-11T13:41:02.554Z,16.75
2019-04-11T13:43:57.625Z,16.90
2019-04-11T13:46:51.850Z,17.12
2019-04-11T13:49:46.550Z,17.13
2019-04-11T13:52:34.923Z,16.99
2019-04-11T13:55:29.954Z,17.12
2019-04-11T13:58:21.255Z,17.24
2019-04-11T14:00:51.540Z,17.37
2019-04-11T14:03:39.959Z,17.19
2019-04-11T14:06:16.331Z,17.18
2019-04-11T14:09:19.957Z,17.13
2019-04-11T14:11:50.865Z,17.24
2019-04-11T14:14:39.321Z,17.40
2019-04-11T14:17:43.027Z,17.39
2019-04-11T14:20:28.587Z,17.34
2019-04-11T14:23:14.774Z,17.26
2019-04-11T14:25:59.458Z,17.33
2019-04-11T14:28:59.950Z,17.25
2019-04-11T14:31:46.259Z,17.12
2019-04-11T14:34:33.241Z,16.90
2019-04-11T14:37:37.734Z,16.75
2019-04-11T14:40:03.642Z,16.53
2019-04-11T14:42:50.547Z,16.43
2019-04-11T14:45:38.802Z,16.33
2019-04-11T14:48:30.738Z,16.31
2019-04-11T14:51:10.465Z,16.34
2019-04-11T14:53:55.791Z,16.43
2019-04-11T14:56:27.152Z,16.48
2019-04-11T14:59:14.157Z,16.44
2019-04-11T15:01:44.977Z,16.29
2019-04-11T15:04:32.290Z,16.37
2019-04-11T15:07:01.748Z,16.31
2019-04-11T15:09:55.849Z,16.28
2019-04-11T15:12:26.592Z,16.24
2019-04-11T15:15:19.285Z,16.26
2019-04-11T15:17:50.538Z,16.27
2019-04-11T15:20:24.225Z,16.31
2019-04-11T15:23:15.800Z,16.33
2019-04-11T15:26:07.885Z,16.33
2019-04-11T15:28:38.423Z,16.28
2019-04-11T15:31:18.525Z,16.17
2019-04-11T15:34:17.754Z,16.16
2019-04-11T15:36:58.791Z,16.00
2019-04-11T15:39:59.352Z,16.04
2019-04-11T15:42:47.700Z,16.04
2019-04-11T15:45:36.028Z,15.94
2019-04-11T15:48:23.840Z,15.93
2019-04-11T15:51:15.101Z,15.88
2019-04-11T15:54:12.413Z,15.82
2019-04-11T15:56:53.385Z,15.82
2019-04-11T15:59:44.021Z,15.79
2019-04-11T16:02:30.933Z,15.80
2019-04-11T16:05:34.584Z,15.81
2019-04-11T16:08:17.315Z,15.81
2019-04-11T16:10:52.848Z,15.72
2019-04-11T16:13:53.125Z,15.73
2019-04-11T16:16:28.010Z,15.71
2019-04-11T16:19:25.162Z,15.72
2019-04-11T16:22:14.958Z,15.74
2019-04-11T16:24:44.753Z,15.74
2019-04-11T16:27:34.286Z,15.73
2019-04-11T16:30:07.906Z,15.71
2019-04-11T16:32:39.966Z,15.68
2019-04-11T16:35:33.086Z,15.62
2019-04-11T16:38:04.150Z,15.55
2019-04-11T16:40:58.595Z,15.48
2019-04-11T16:43:27.967Z,15.44
2019-04-11T16:46:20.295Z,15.35
2019-04-11T16:48:49.792Z,15.31
2019-04-11T16:51:30.138Z,15.29
2019-04-11T16:53:50.262Z,15.26
2019-04-11T16:56:19.563Z,15.20
2019-04-11T16:58:50.095Z,15.14
2019-04-11T17:01:23.155Z,15.08
2019-04-11T17:03:54.839Z,15.04
2019-04-11T17:06:39.702Z,14.98
2019-04-11T17:09:16.379Z,14.91
2019-04-11T17:11:45.958Z,14.87
2019-04-11T17:14:22.703Z,14.78
2019-04-11T17:16:48.289Z,14.73
2019-04-11T17:19:17.850Z,14.64
2019-04-11T17:21:48.336Z,14.58
2019-04-11T17:24:18.378Z,14.51
2019-04-11T17:26:47.762Z,14.46
2019-04-11T17:29:17.258Z,14.42
2019-04-11T17:31:46.794Z,14.39
2019-04-11T17:34:16.269Z,14.34
2019-04-11T17:36:45.838Z,14.28
2019-04-11T17:39:15.261Z,14.10
2019-04-11T17:41:44.933Z,13.90
2019-04-11T17:44:14.424Z,13.79
2019-04-11T17:46:43.924Z,13.69
2019-04-11T17:49:13.345Z,13.65
2019-04-11T17:51:50.382Z,13.61
2019-04-11T17:54:13.997Z,13.43
2019-04-11T17:56:43.398Z,13.29
2019-04-11T17:59:12.982Z,13.24
2019-04-11T18:01:42.718Z,13.28
2019-04-11T18:04:13.510Z,13.20
2019-04-11T18:06:46.973Z,13.16
2019-04-11T18:09:14.833Z,13.10
2019-04-11T18:11:44.237Z,13.04
2019-04-11T18:14:13.703Z,13.01
2019-04-11T18:16:43.334Z,12.99
2019-04-11T18:19:13.002Z,12.97
2019-04-11T18:21:42.523Z,13.01
2019-04-11T18:24:11.927Z,13.04
2019-04-11T18:26:42.998Z,13.13
2019-04-11T18:29:12.550Z,13.17
2019-04-11T18:31:42.039Z,13.25
2019-04-11T18:34:11.354Z,13.30
2019-04-11T18:36:40.845Z,13.31
2019-04-11T18:39:10.304Z,13.30
2019-04-11T18:41:39.847Z,13.28
2019-04-11T18:44:09.385Z,13.31
2019-04-11T18:46:38.985Z,13.34
2019-04-11T18:49:08.437Z,13.40
2019-04-11T18:51:38.013Z,13.43
2019-04-11T18:54:07.860Z,13.39
2019-04-11T18:56:38.229Z,13.38
2019-04-11T18:59:07.915Z,13.46
2019-04-11T19:01:39.983Z,13.33
2019-04-11T19:04:11.782Z,13.40
2019-04-11T19:06:42.579Z,13.48
2019-04-11T19:09:14.099Z,13.52
2019-04-11T19:11:46.244Z,13.53
2019-04-11T19:14:16.004Z,13.49
2019-04-11T19:16:46.839Z,13.51
2019-04-11T19:19:18.399Z,13.49
2019-04-11T19:21:50.835Z,13.48
2019-04-11T19:24:18.893Z,13.55
2019-04-11T19:26:48.314Z,13.56
2019-04-11T19:29:17.684Z,13.47
2019-04-11T19:31:47.093Z,13.51
2019-04-11T19:34:16.552Z,13.55
2019-04-11T19:36:46.103Z,13.55
2019-04-11T19:39:16.006Z,13.56
2019-04-11T19:41:47.807Z,13.58
2019-04-11T19:44:18.936Z,13.56
2019-04-11T19:46:48.476Z,13.62
2019-04-11T19:49:18.437Z,13.62
2019-04-11T19:51:47.979Z,13.65
2019-04-11T19:54:17.410Z,13.65
2019-04-11T19:57:01.224Z,13.68
2019-04-11T19:59:30.615Z,13.64
2019-04-11T20:02:00.155Z,13.61
2019-04-11T20:04:29.610Z,13.59
2019-04-11T20:06:58.981Z,13.60
2019-04-11T20:09:28.568Z,13.56
2019-04-11T20:12:00.864Z,13.49
2019-04-11T20:14:29.350Z,13.40
2019-04-11T20:16:58.951Z,13.34
2019-04-11T20:19:28.393Z,13.30
2019-04-11T20:21:57.842Z,13.18
2019-04-11T20:24:27.334Z,13.12
2019-04-11T20:26:56.816Z,13.09
2019-04-11T20:29:27.367Z,12.98
2019-04-11T20:31:56.787Z,12.92
2019-04-11T20:34:27.780Z,12.75
2019-04-11T20:36:57.416Z,12.77
2019-04-11T20:39:26.964Z,12.79
2019-04-11T20:41:56.339Z,12.78
2019-04-11T20:44:27.417Z,12.80
2019-04-11T20:47:00.175Z,12.81
2019-04-11T20:49:28.195Z,12.77
2019-04-11T20:51:57.615Z,12.73
2019-04-11T20:54:27.232Z,12.72
2019-04-11T20:56:56.734Z,12.70
2019-04-11T20:59:34.447Z,12.65
2019-04-11T21:01:57.448Z,12.63
2019-04-11T21:04:26.916Z,12.63
2019-04-11T21:06:56.342Z,12.56
2019-04-11T21:09:25.781Z,12.51
2019-04-11T21:11:55.250Z,12.61
2019-04-11T21:14:24.788Z,12.61
2019-04-11T21:16:54.227Z,12.51
2019-04-11T21:19:23.870Z,12.49
2019-04-11T21:21:53.584Z,12.51
2019-04-11T21:24:23.746Z,12.27
2019-04-11T21:26:53.124Z,12.32
2019-04-11T21:29:22.648Z,12.32
2019-04-11T21:31:52.206Z,12.25
2019-04-11T21:34:21.628Z,12.26
2019-04-11T21:36:51.210Z,12.19
2019-04-11T21:39:20.570Z,12.16
2019-04-11T21:41:50.077Z,12.01
2019-04-11T21:44:19.413Z,11.80
2019-04-11T21:46:49.447Z,11.74
2019-04-11T21:49:18.814Z,11.70
2019-04-11T21:51:48.270Z,11.55
2019-04-11T21:54:17.734Z,11.63
2019-04-11T21:56:49.635Z,11.66
2019-04-11T21:59:21.040Z,11.67
2019-04-11T22:01:53.839Z,11.68
2019-04-11T22:04:21.742Z,11.64
2019-04-11T22:06:51.305Z,11.53
2019-04-11T22:09:20.839Z,11.49
2019-04-11T22:11:50.142Z,11.51
2019-04-11T22:14:19.502Z,11.46
2019-04-11T22:16:48.988Z,11.40
2019-04-11T22:19:18.467Z,11.27
2019-04-11T22:21:47.977Z,11.23
2019-04-11T22:24:17.449Z,11.26
2019-04-11T22:26:50.102Z,11.24
2019-04-11T22:29:18.136Z,11.24
2019-04-11T22:31:47.490Z,11.19
2019-04-11T22:34:36.697Z,11.22
2019-04-11T22:37:06.088Z,11.19
2019-04-11T22:39:35.461Z,11.14
2019-04-11T22:42:04.795Z,11.04
2019-04-11T22:44:35.561Z,11.01
2019-04-11T22:47:07.790Z,10.99
2019-04-11T22:49:36.847Z,10.83
2019-04-11T22:52:07.717Z,10.81
2019-04-11T22:54:37.118Z,10.77
2019-04-11T22:57:06.517Z,10.77
2019-04-11T22:59:35.998Z,10.74
2019-04-11T23:02:16.907Z,10.74
2019-04-11T23:04:47.168Z,10.70
2019-04-11T23:07:17.782Z,10.62
2019-04-11T23:09:48.965Z,10.58
2019-04-11T23:12:19.113Z,10.38
2019-04-11T23:14:48.570Z,10.45
2019-04-11T23:17:18.156Z,10.33
2019-04-11T23:19:47.498Z,10.33
2019-04-11T23:22:16.904Z,10.31
2019-04-11T23:24:46.410Z,10.28
2019-04-11T23:27:15.869Z,10.23
2019-04-11T23:29:47.119Z,10.12
2019-04-11T23:32:18.762Z,10.12
2019-04-11T23:34:49.916Z,10.11
2019-04-11T23:37:21.157Z,10.05
2019-04-11T23:39:51.069Z,9.93
2019-04-11T23:42:20.941Z,9.84
2019-04-11T23:44:51.140Z,9.81
2019-04-11T23:47:23.107Z,9.34
2019-04-11T23:49:55.096Z,9.34
2019-04-11T23:52:26.453Z,9.28
2019-04-11T23:54:54.319Z,9.22
2019-04-11T23:57:23.558Z,9.21
2019-04-11T23:59:53.228Z,9.21
